Ballarat, California
Current Conditions -  °F | °C
As of 12:56 AM on Friday 24 Oct 2014 (Local Time) from KNID Reporting Station
Clear Clear  
Wind Chill: 59°   Ceiling: Unl
Heat Index: 59°   Visibility: 10mi
Dew Point: 26°   Wind: 0mph
Humidity: 28%   Direction: NA
Pressure: 30.03"   Gusts: NA
Location:  35.6496°N, 117.375°W
Report Text: KNID 240756Z 00000KT 10SM CLR 15/M03 A3003 RMK AO2 SLP156 T01501033 403110083 $
Loading
Personal Weather Stations






























Interactive Weather Map
Tropical Storm Tracking
New forecast layout! Learn more

10-Day Weather Forecast

Advertisements
Track Severe Weather on mobile